Time;durP1;ratioP1;P1;durP2;ratioP2;P2;SDS_P1;SDS_P2;PMS_P1;PMS_P2;Temp;Humidity;BMP_temperature;BMP_pressure;BME280_temperature;BME280_humidity;BME280_pressure;Samples;Min_cycle;Max_cycle;Signal;HPM_P1;HPM_P2
2024/03/07 00:00:42;;;;;;;132.88;42.08;;;;;;;12.20;68.96;102312.06;5025143;27;97242;-70
2024/03/07 00:03:09;;;;;;;131.68;42.25;;;;;;;12.07;69.56;102310.53;5026083;27;98878;-69
2024/03/07 00:05:35;;;;;;;137.05;44.00;;;;;;;12.25;69.20;102318.16;5025343;27;97012;-69
2024/03/07 00:08:03;;;;;;;138.25;41.47;;;;;;;12.19;69.07;102299.69;5025692;27;97362;-70
2024/03/07 00:10:29;;;;;;;138.68;42.40;;;;;;;12.20;69.11;102314.72;5028008;27;98957;-69
2024/03/07 00:12:57;;;;;;;132.50;42.72;;;;;;;12.16;69.25;102307.69;5017601;27;99705;-69
2024/03/07 00:15:24;;;;;;;142.73;41.25;;;;;;;12.29;68.68;102309.22;5026363;27;97512;-69
2024/03/07 00:17:50;;;;;;;143.80;43.00;;;;;;;12.37;68.48;102306.44;5029748;27;96797;-69
2024/03/07 00:20:19;;;;;;;142.93;41.70;;;;;;;12.32;68.55;102309.19;5019204;27;98108;-70
2024/03/07 00:22:46;;;;;;;133.63;41.33;;;;;;;12.19;68.69;102312.94;5027620;27;101705;-69
2024/03/07 00:25:14;;;;;;;138.10;42.35;;;;;;;12.30;68.64;102308.31;5023292;27;97729;-69
2024/03/07 00:27:41;;;;;;;134.75;41.45;;;;;;;12.24;68.73;102300.50;5016608;27;97028;-70
2024/03/07 00:30:09;;;;;;;136.65;41.13;;;;;;;12.17;68.80;102309.44;5020058;27;96897;-70
2024/03/07 00:32:39;;;;;;;121.65;40.58;;;;;;;12.26;68.42;102311.94;5023836;27;100550;-69
2024/03/07 00:35:08;;;;;;;127.30;40.88;;;;;;;12.23;68.54;102308.47;5025700;27;97628;-69
2024/03/07 00:37:35;;;;;;;126.38;40.90;;;;;;;12.24;68.45;102308.44;5028271;27;96823;-70
2024/03/07 00:40:03;;;;;;;138.52;41.80;;;;;;;12.21;68.49;102305.81;5032099;27;97065;-70
2024/03/07 00:42:32;;;;;;;127.40;42.38;;;;;;;12.32;68.08;102303.00;5027813;27;101345;-68
2024/03/07 00:44:59;;;;;;;127.50;41.25;;;;;;;12.21;68.09;102311.13;5022186;27;99139;-69
2024/03/07 00:47:26;;;;;;;131.90;41.10;;;;;;;12.21;68.02;102304.94;5011890;27;97514;-70
2024/03/07 00:49:53;;;;;;;130.10;39.50;;;;;;;12.04;68.73;102304.38;5028501;27;97123;-70
2024/03/07 00:52:20;;;;;;;131.95;38.88;;;;;;;12.08;68.54;102303.44;5024844;27;99319;-70
2024/03/07 00:54:46;;;;;;;123.40;41.17;;;;;;;12.17;68.28;102312.09;5027992;27;100749;-69
2024/03/07 00:57:13;;;;;;;128.68;41.05;;;;;;;12.22;67.99;102301.41;5024104;27;98004;-70
2024/03/07 00:59:39;;;;;;;134.35;39.72;;;;;;;12.24;67.98;102299.63;5031718;27;96810;-69
2024/03/07 01:02:07;;;;;;;128.38;40.65;;;;;;;12.14;68.18;102303.34;5021076;27;98941;-69
2024/03/07 01:04:35;;;;;;;126.38;40.22;;;;;;;12.10;67.84;102297.19;5019378;27;99125;-69
2024/03/07 01:07:02;;;;;;;130.23;40.85;;;;;;;12.03;67.94;102294.69;5018884;27;97505;-69
2024/03/07 01:09:29;;;;;;;126.20;40.83;;;;;;;12.02;68.31;102301.75;5018565;27;99172;-69
2024/03/07 01:11:55;;;;;;;132.52;40.25;;;;;;;12.14;67.89;102293.59;5023153;27;99139;-70
2024/03/07 01:14:23;;;;;;;132.48;39.10;;;;;;;12.19;67.45;102301.47;5024765;27;99213;-69
2024/03/07 01:16:49;;;;;;;134.98;40.65;;;;;;;12.19;67.46;102302.34;5023486;27;98038;-68
2024/03/07 01:19:16;;;;;;;141.75;38.70;;;;;;;11.89;68.86;102294.91;5021544;27;98601;-68
2024/03/07 01:21:43;;;;;;;134.38;38.63;;;;;;;11.80;69.30;102297.72;5023068;27;101799;-68
2024/03/07 01:24:10;;;;;;;126.07;39.13;;;;;;;12.15;67.97;102297.09;5020645;27;98893;-69
2024/03/07 01:26:37;;;;;;;121.72;39.47;;;;;;;12.20;67.21;102303.22;5014909;27;99621;-69
2024/03/07 01:29:04;;;;;;;124.45;38.90;;;;;;;12.08;67.66;102299.00;5025771;27;97021;-69
2024/03/07 01:31:30;;;;;;;116.03;36.42;;;;;;;11.93;68.00;102301.91;5017569;27;98184;-69
2024/03/07 01:33:57;;;;;;;123.63;38.63;;;;;;;11.93;67.28;102299.28;5023410;27;98834;-69
2024/03/07 01:36:23;;;;;;;115.22;38.55;;;;;;;12.15;66.52;102298.00;5021027;27;96823;-69
2024/03/07 01:38:53;;;;;;;118.00;38.55;;;;;;;12.07;66.84;102297.28;5020900;27;97021;-69
2024/03/07 01:41:20;;;;;;;115.63;38.42;;;;;;;12.17;65.97;102296.19;5027389;27;99006;-68
2024/03/07 01:43:50;;;;;;;100.85;35.65;;;;;;;12.17;65.56;102303.28;5027631;27;100147;-68
2024/03/07 01:46:17;;;;;;;122.88;37.97;;;;;;;12.13;65.42;102299.81;5020194;27;98660;-68
2024/03/07 01:48:44;;;;;;;103.50;36.13;;;;;;;11.85;66.13;102285.28;5025649;27;98207;-69
2024/03/07 01:51:10;;;;;;;113.70;36.53;;;;;;;11.77;66.33;102295.97;5032067;27;98901;-69
2024/03/07 01:53:37;;;;;;;108.10;35.88;;;;;;;11.76;66.49;102296.00;5027437;27;99418;-69
2024/03/07 01:56:05;;;;;;;110.70;36.10;;;;;;;11.91;66.45;102298.41;5028583;27;99221;-69
2024/03/07 01:58:32;;;;;;;95.82;35.35;;;;;;;11.59;66.47;102297.13;5018830;27;97315;-68
2024/03/07 02:00:59;;;;;;;102.03;35.78;;;;;;;11.53;66.45;102310.44;5029073;27;99102;-68
2024/03/07 02:03:25;;;;;;;106.75;36.45;;;;;;;11.66;66.27;102302.31;5033029;27;99534;-68
2024/03/07 02:05:52;;;;;;;95.13;34.05;;;;;;;11.73;65.77;102301.34;5020151;27;97268;-69
2024/03/07 02:08:23;;;;;;;108.03;34.17;;;;;;;11.78;65.87;102288.91;5025328;27;98107;-68
2024/03/07 02:10:50;;;;;;;105.90;36.30;;;;;;;11.74;65.61;102292.53;5024036;27;98904;-69
2024/03/07 02:13:18;;;;;;;107.43;35.92;;;;;;;11.63;65.73;102294.41;5026794;27;98727;-68
2024/03/07 02:15:44;;;;;;;101.45;33.88;;;;;;;11.86;64.44;102293.19;5034661;27;96871;-68
2024/03/07 02:18:11;;;;;;;105.47;35.55;;;;;;;11.67;65.33;102288.19;5025076;27;97354;-68
2024/03/07 02:20:37;;;;;;;106.25;36.55;;;;;;;11.64;65.50;102288.22;5033632;27;101678;-68
2024/03/07 02:23:05;;;;;;;98.93;36.13;;;;;;;11.51;65.42;102283.13;5027542;27;97968;-68
2024/03/07 02:25:32;;;;;;;100.10;35.78;;;;;;;11.19;66.84;102283.59;5024741;27;99312;-69
2024/03/07 02:27:58;;;;;;;114.18;37.70;;;;;;;11.48;66.43;102274.38;5026499;27;97567;-68
2024/03/07 02:30:25;;;;;;;112.55;38.55;;;;;;;11.46;66.48;102284.09;5025094;27;99051;-68
2024/03/07 02:32:54;;;;;;;112.63;36.28;;;;;;;11.31;66.94;102276.34;5026578;27;98782;-68
2024/03/07 02:35:21;;;;;;;116.57;38.50;;;;;;;11.24;67.35;102272.06;5032198;27;97963;-67
2024/03/07 02:37:48;;;;;;;104.35;37.25;;;;;;;11.34;67.11;102271.91;5025475;27;97598;-68
2024/03/07 02:40:16;;;;;;;108.07;37.15;;;;;;;11.41;66.56;102270.94;5026074;27;101370;-68
2024/03/07 02:42:43;;;;;;;116.72;37.90;;;;;;;11.38;66.68;102273.59;5022465;27;101938;-67
2024/03/07 02:45:12;;;;;;;115.85;38.45;;;;;;;11.46;66.70;102276.16;5027092;27;96885;-68
2024/03/07 02:47:41;;;;;;;108.72;39.47;;;;;;;11.32;67.10;102271.06;5018451;27;97159;-68
2024/03/07 02:50:09;;;;;;;109.00;41.47;;;;;;;11.29;66.76;102273.72;5023348;27;98958;-68
2024/03/07 02:52:35;;;;;;;119.45;40.53;;;;;;;11.35;66.53;102281.63;5019800;27;99141;-68
2024/03/07 02:55:03;;;;;;;111.57;39.70;;;;;;;11.22;66.74;102269.44;5026281;27;97904;-69
2024/03/07 02:57:31;;;;;;;130.45;40.58;;;;;;;11.29;66.87;102270.25;5027085;27;96923;-68
2024/03/07 02:59:57;;;;;;;110.35;39.45;;;;;;;11.06;67.58;102275.84;5025679;27;98958;-70
2024/03/07 03:02:24;;;;;;;111.88;40.22;;;;;;;11.11;67.29;102274.00;5023138;27;102264;-69
2024/03/07 03:04:50;;;;;;;124.43;39.80;;;;;;;10.98;67.64;102278.56;5024618;27;96952;-69
2024/03/07 03:07:17;;;;;;;108.85;38.90;;;;;;;10.94;67.78;102270.72;5023111;27;97839;-69
2024/03/07 03:09:43;;;;;;;116.20;40.78;;;;;;;11.00;68.00;102274.16;5027149;27;99831;-69
2024/03/07 03:12:10;;;;;;;124.25;40.25;;;;;;;10.92;67.97;102277.78;5034540;27;99035;-69
2024/03/07 03:14:38;;;;;;;117.40;41.15;;;;;;;10.83;68.33;102278.75;5025567;27;97141;-69
2024/03/07 03:17:05;;;;;;;117.15;40.58;;;;;;;10.88;67.86;102270.78;5031200;27;97362;-69
2024/03/07 03:19:31;;;;;;;104.05;40.08;;;;;;;10.89;67.98;102276.06;5025171;27;99417;-69
2024/03/07 03:21:57;;;;;;;123.70;41.80;;;;;;;10.86;67.82;102275.22;5021768;27;99077;-68
2024/03/07 03:24:25;;;;;;;115.63;42.40;;;;;;;10.81;68.67;102280.56;5025191;27;99612;-68
2024/03/07 03:26:51;;;;;;;121.82;41.83;;;;;;;10.74;68.70;102284.16;5025568;27;97639;-69
2024/03/07 03:29:18;;;;;;;114.65;42.35;;;;;;;10.82;68.28;102278.78;5022679;27;99504;-68
2024/03/07 03:31:46;;;;;;;116.25;40.67;;;;;;;10.62;68.98;102286.97;5025240;27;97811;-69
2024/03/07 03:34:12;;;;;;;124.53;42.15;;;;;;;10.71;68.41;102294.75;5024211;27;99092;-68
2024/03/07 03:36:38;;;;;;;117.95;42.72;;;;;;;10.67;68.72;102288.66;5026814;27;97318;-69
2024/03/07 03:39:06;;;;;;;113.78;39.90;;;;;;;10.71;68.63;102287.72;5021449;27;99130;-68
2024/03/07 03:41:33;;;;;;;119.82;43.08;;;;;;;10.54;69.37;102291.44;5025148;27;99064;-69
2024/03/07 03:43:59;;;;;;;114.13;42.05;;;;;;;10.64;68.94;102298.38;5026831;27;98608;-69
2024/03/07 03:46:25;;;;;;;127.10;42.85;;;;;;;10.69;68.80;102288.66;5025082;27;99830;-69
2024/03/07 03:48:53;;;;;;;114.80;41.22;;;;;;;10.84;68.06;102288.44;5026468;27;102702;-69
2024/03/07 03:51:21;;;;;;;120.75;42.42;;;;;;;10.60;68.19;102291.38;5020191;27;98872;-69
2024/03/07 03:53:48;;;;;;;114.70;42.58;;;;;;;10.60;68.60;102297.53;5028470;27;96792;-68
2024/03/07 03:56:15;;;;;;;115.40;39.00;;;;;;;10.73;68.15;102288.59;5017585;27;97271;-68
2024/03/07 03:58:42;;;;;;;108.72;40.03;;;;;;;10.59;68.39;102292.25;5022107;27;99234;-68
2024/03/07 04:01:12;;;;;;;110.82;40.70;;;;;;;10.42;68.74;102294.22;5027203;27;98886;-68
2024/03/07 04:03:39;;;;;;;106.47;41.28;;;;;;;10.39;68.72;102298.66;5025333;27;97095;-68
2024/03/07 04:06:07;;;;;;;109.03;39.80;;;;;;;10.34;69.27;102296.94;5029045;27;97301;-68
2024/03/07 04:08:36;;;;;;;106.15;40.25;;;;;;;10.43;68.90;102299.50;5021880;27;99076;-68
2024/03/07 04:11:03;;;;;;;102.82;37.58;;;;;;;10.24;69.12;102303.22;5025616;27;99134;-68
2024/03/07 04:13:30;;;;;;;108.75;39.03;;;;;;;10.13;69.77;102302.38;5026445;27;97025;-74
2024/03/07 04:15:56;;;;;;;104.57;40.08;;;;;;;10.22;68.92;102303.22;5024710;27;98656;-74
2024/03/07 04:18:23;;;;;;;98.32;39.33;;;;;;;10.10;69.05;102303.31;5023989;27;100932;-74
2024/03/07 04:20:51;;;;;;;98.38;39.45;;;;;;;10.17;68.55;102305.03;5023630;27;99382;-74
2024/03/07 04:23:20;;;;;;;100.30;38.42;;;;;;;10.17;69.03;102301.53;5024360;27;97141;-74
2024/03/07 04:25:46;;;;;;;106.22;39.72;;;;;;;10.24;68.56;102305.88;5019062;27;97337;-74
2024/03/07 04:28:13;;;;;;;96.10;38.78;;;;;;;10.28;68.37;102304.94;5020055;27;100195;-73
2024/03/07 04:30:39;;;;;;;105.00;39.78;;;;;;;10.37;67.88;102304.84;5015549;27;99149;-74
2024/03/07 04:33:06;;;;;;;93.20;36.92;;;;;;;10.31;67.73;102304.88;5021453;27;96779;-74
2024/03/07 04:35:32;;;;;;;93.43;37.38;;;;;;;10.22;67.97;102305.00;5026884;27;97647;-73
2024/03/07 04:37:58;;;;;;;93.72;37.97;;;;;;;10.12;67.68;102298.88;5023470;27;100364;-74
2024/03/07 04:40:26;;;;;;;83.45;35.50;;;;;;;10.17;67.63;102298.88;5025195;27;99173;-74
2024/03/07 04:42:52;;;;;;;95.70;37.15;;;;;;;10.19;67.65;102307.66;5025830;27;97260;-74
2024/03/07 04:45:21;;;;;;;89.82;37.00;;;;;;;9.98;68.22;102308.66;5029429;27;96787;-74
2024/03/07 04:47:47;;;;;;;90.10;38.10;;;;;;;10.10;67.69;102310.34;5024855;27;101785;-73
2024/03/07 04:50:17;;;;;;;83.07;36.22;;;;;;;9.98;68.22;102311.31;5025628;27;98657;-74
2024/03/07 04:52:43;;;;;;;82.22;35.28;;;;;;;10.03;67.79;102309.53;5025884;27;97278;-73
2024/03/07 04:55:10;;;;;;;84.30;35.80;;;;;;;9.86;67.91;102317.56;5025743;27;96972;-74
2024/03/07 04:57:39;;;;;;;98.25;36.78;;;;;;;9.94;68.30;102314.88;5025235;27;99468;-74
2024/03/07 05:00:11;;;;;;;79.18;34.15;;;;;;;9.95;67.58;102311.34;5025072;27;98893;-73
2024/03/07 05:02:38;;;;;;;78.30;34.28;;;;;;;9.86;67.63;102319.34;5026680;27;97883;-74
2024/03/07 05:05:05;;;;;;;81.25;34.92;;;;;;;9.95;67.46;102317.50;5024050;27;96906;-76
2024/03/07 05:07:31;;;;;;;86.57;34.58;;;;;;;9.90;67.74;102318.44;5028417;27;99526;-74
2024/03/07 05:09:58;;;;;;;76.00;33.78;;;;;;;9.96;66.67;102318.41;5026198;27;98205;-74
2024/03/07 05:12:24;;;;;;;79.22;34.00;;;;;;;9.73;68.01;102321.19;5025354;27;96773;-74
2024/03/07 05:14:53;;;;;;;69.38;31.92;;;;;;;9.92;67.40;102327.22;5028826;27;97803;-74
2024/03/07 05:17:20;;;;;;;76.50;33.38;;;;;;;9.75;67.07;102323.81;5028433;27;99119;-74
2024/03/07 05:19:47;;;;;;;79.85;33.58;;;;;;;9.80;66.99;102333.47;5027429;27;99168;-73
2024/03/07 05:22:15;;;;;;;72.35;32.67;;;;;;;9.80;66.81;102330.81;5026651;27;98946;-75
2024/03/07 05:24:42;;;;;;;69.22;32.47;;;;;;;9.69;67.30;102329.16;5024038;27;97243;-74
2024/03/07 05:27:11;;;;;;;74.07;32.63;;;;;;;9.77;67.14;102328.22;5032821;27;97999;-68
2024/03/07 05:29:37;;;;;;;73.03;32.30;;;;;;;9.77;66.76;102336.13;5020336;27;99250;-68
2024/03/07 05:32:25;;;;;;;79.07;30.80;;;;;;;9.79;66.78;102336.97;5028432;27;97558;-68
2024/03/07 05:34:53;;;;;;;68.90;31.63;;;;;;;9.62;66.64;102333.59;5028041;27;98685;-67
2024/03/07 05:37:21;;;;;;;67.68;31.75;;;;;;;9.74;66.62;102333.50;5022583;27;98927;-68
2024/03/07 05:39:47;;;;;;;68.35;31.27;;;;;;;9.74;66.71;102328.22;5028699;27;99211;-68
2024/03/07 05:42:14;;;;;;;69.05;32.38;;;;;;;9.69;66.34;102335.31;5026258;27;97264;-70
2024/03/07 05:44:41;;;;;;;68.53;33.58;;;;;;;9.74;66.56;102335.28;5021249;27;96950;-69
2024/03/07 05:47:08;;;;;;;75.82;32.25;;;;;;;9.66;66.79;102339.72;5022178;27;99981;-68
2024/03/07 05:49:37;;;;;;;68.88;31.08;;;;;;;9.65;66.50;102348.53;5025151;27;98587;-69
2024/03/07 05:52:03;;;;;;;73.00;31.17;;;;;;;9.72;65.93;102340.56;5025179;27;96776;-70
2024/03/07 05:54:30;;;;;;;64.82;29.73;;;;;;;9.81;65.55;102344.91;5023153;27;97166;-70
2024/03/07 05:56:56;;;;;;;66.00;30.95;;;;;;;9.77;65.50;102348.47;5023664;27;98967;-70
2024/03/07 05:59:23;;;;;;;63.08;30.52;;;;;;;9.56;65.68;102347.72;5026236;27;101374;-70
2024/03/07 06:01:50;;;;;;;64.50;31.67;;;;;;;9.76;65.21;102349.34;5021952;27;97798;-69
2024/03/07 06:04:17;;;;;;;62.10;29.40;;;;;;;9.87;64.84;102351.00;5023477;27;97136;-69
2024/03/07 06:06:46;;;;;;;69.95;31.38;;;;;;;9.76;65.01;102349.34;5017869;27;98723;-68
2024/03/07 06:09:14;;;;;;;64.20;29.98;;;;;;;9.71;65.33;102351.16;5016166;27;99551;-70
2024/03/07 06:11:42;;;;;;;65.50;29.45;;;;;;;9.46;65.97;102353.91;5021551;27;97164;-69
2024/03/07 06:14:10;;;;;;;58.78;29.10;;;;;;;9.70;65.44;102354.66;5019489;27;98633;-71
2024/03/07 06:16:41;;;;;;;63.30;29.50;;;;;;;9.51;66.05;102356.53;5023393;27;99176;-70
2024/03/07 06:19:08;;;;;;;66.25;29.10;;;;;;;9.44;65.75;102362.75;5018129;27;99006;-69
2024/03/07 06:21:37;;;;;;;65.57;30.25;;;;;;;9.43;66.12;102363.63;5021739;27;97293;-69
2024/03/07 06:24:07;;;;;;;63.13;29.08;;;;;;;9.39;65.73;102361.84;5019793;27;96875;-69
2024/03/07 06:26:45;;;;;;;61.28;27.67;;;;;;;9.50;65.33;102363.59;5026203;27;99776;-69
2024/03/07 06:29:26;;;;;;;58.10;28.15;;;;;;;9.45;65.33;102361.84;5022262;27;98837;-69
2024/03/07 06:31:53;;;;;;;61.15;28.10;;;;;;;9.50;65.28;102365.34;5036298;27;97362;-68
2024/03/07 06:34:20;;;;;;;68.00;29.17;;;;;;;9.70;63.94;102366.09;5028798;27;99610;-68
2024/03/07 06:36:46;;;;;;;62.97;28.65;;;;;;;9.62;63.31;102364.38;5024768;27;98500;-68
2024/03/07 06:39:14;;;;;;;61.15;28.00;;;;;;;9.65;63.56;102364.38;5022330;27;98831;-68
2024/03/07 06:41:41;;;;;;;64.18;27.10;;;;;;;9.81;62.99;102372.19;5023170;27;97209;-68
2024/03/07 06:44:09;;;;;;;60.80;27.63;;;;;;;9.66;63.25;102369.63;5027823;27;97408;-68
2024/03/07 06:46:35;;;;;;;53.78;25.75;;;;;;;9.74;62.95;102367.81;5024439;27;101256;-68
2024/03/07 06:49:02;;;;;;;53.85;25.60;;;;;;;9.88;61.45;102376.53;5024787;27;98155;-68
2024/03/07 06:51:28;;;;;;;55.75;24.92;;;;;;;10.06;61.35;102382.56;5023794;27;97233;-69
2024/03/07 06:53:55;;;;;;;50.58;24.17;;;;;;;9.98;60.40;102380.84;5020142;27;98655;-69
2024/03/07 06:56:24;;;;;;;52.90;24.67;;;;;;;10.10;60.38;102389.59;5026404;27;99137;-69
2024/03/07 06:58:50;;;;;;;60.92;25.52;;;;;;;10.04;59.84;102373.78;5017794;27;98982;-68
2024/03/07 07:01:18;;;;;;;57.65;24.25;;;;;;;10.00;59.72;102384.38;5023322;27;96764;-69
2024/03/07 07:03:48;;;;;;;49.53;23.27;;;;;;;10.30;58.96;102379.78;5017344;27;97000;-70
2024/03/07 07:06:14;;;;;;;44.00;22.23;;;;;;;10.08;57.98;102380.78;5025857;27;98918;-69
2024/03/07 07:08:41;;;;;;;53.10;24.50;;;;;;;10.26;58.58;102389.47;5018472;27;99136;-71
2024/03/07 07:11:07;;;;;;;56.05;22.92;;;;;;;10.52;57.75;102388.38;5019283;27;96845;-70
2024/03/07 07:13:36;;;;;;;45.67;23.83;;;;;;;10.72;56.87;102391.69;5019052;27;98674;-70
2024/03/07 07:16:03;;;;;;;47.10;22.05;;;;;;;10.61;55.76;102398.88;5024867;27;98977;-69
2024/03/07 07:18:30;;;;;;;45.00;22.65;;;;;;;10.71;55.10;102396.13;5027199;27;97744;-70
2024/03/07 07:20:58;;;;;;;44.33;20.20;;;;;;;10.59;55.15;102390.94;5029069;27;96764;-70
2024/03/07 07:23:24;;;;;;;42.78;20.63;;;;;;;10.82;54.61;102387.22;5026927;27;98276;-69
2024/03/07 07:25:50;;;;;;;40.05;19.65;;;;;;;10.43;54.10;102383.19;5023369;27;99229;-70
2024/03/07 07:28:17;;;;;;;45.80;20.70;;;;;;;10.51;53.60;102389.25;5018780;27;100465;-69
2024/03/07 07:30:45;;;;;;;39.63;19.48;;;;;;;10.73;53.64;102391.69;5026385;27;97525;-69
2024/03/07 07:33:14;;;;;;;39.35;19.60;;;;;;;10.70;53.49;102393.47;5028354;27;97000;-69
2024/03/07 07:35:40;;;;;;;46.30;20.88;;;;;;;10.71;53.24;102396.13;5032010;27;98889;-68
2024/03/07 07:38:10;;;;;;;35.78;18.63;;;;;;;10.70;52.99;102396.13;5021524;27;99217;-68
2024/03/07 07:40:36;;;;;;;44.20;19.95;;;;;;;10.71;52.26;102385.53;5033005;27;97009;-68
2024/03/07 07:43:03;;;;;;;43.25;18.88;;;;;;;11.13;50.67;102383.31;5024214;27;96782;-70
2024/03/07 07:45:35;;;;;;;35.85;17.67;;;;;;;11.03;50.49;102386.94;5025249;27;100991;-68
2024/03/07 07:48:03;;;;;;;39.97;18.65;;;;;;;10.59;51.43;102390.94;5020135;27;98993;-69
2024/03/07 07:50:30;;;;;;;36.88;18.25;;;;;;;10.91;50.68;102392.38;5026176;27;96923;-68
2024/03/07 07:52:58;;;;;;;36.72;18.20;;;;;;;10.95;50.13;102384.41;5027925;27;97057;-69
2024/03/07 07:55:26;;;;;;;38.20;17.40;;;;;;;11.03;50.34;102381.66;5020392;27;99053;-69
2024/03/07 07:57:54;;;;;;;37.10;18.08;;;;;;;10.95;49.28;102387.06;5028658;27;97587;-69
2024/03/07 08:00:25;;;;;;;40.55;17.63;;;;;;;11.24;49.13;102378.78;5023962;27;98775;-68
2024/03/07 08:02:53;;;;;;;37.30;18.48;;;;;;;11.19;48.30;102384.13;5020539;27;99414;-70
2024/03/07 08:05:22;;;;;;;34.13;16.90;;;;;;;11.35;48.31;102386.59;5012922;27;98926;-69
2024/03/07 08:07:50;;;;;;;33.40;16.98;;;;;;;11.68;47.75;102374.69;5017854;27;98894;-68
2024/03/07 08:10:17;;;;;;;33.45;17.63;;;;;;;11.82;47.09;102378.00;5021541;27;97207;-69
2024/03/07 08:12:44;;;;;;;33.55;15.80;;;;;;;12.08;46.24;102388.25;5026904;27;97459;-68
2024/03/07 08:15:13;;;;;;;30.23;15.43;;;;;;;12.04;45.33;102384.75;5019135;27;99099;-71
2024/03/07 08:17:40;;;;;;;36.25;16.77;;;;;;;12.13;44.61;102379.31;5013555;27;98123;-68
2024/03/07 08:20:11;;;;;;;31.10;16.33;;;;;;;12.06;43.91;102376.78;5018578;27;97927;-69
2024/03/07 08:22:40;;;;;;;30.13;15.82;;;;;;;12.07;44.78;102382.06;5020998;27;96963;-69
2024/03/07 08:25:09;;;;;;;30.80;15.88;;;;;;;12.32;44.20;102374.56;5025013;27;98954;-69
2024/03/07 08:27:35;;;;;;;31.65;16.48;;;;;;;12.27;44.91;102379.94;5019318;27;100724;-69
2024/03/07 08:30:02;;;;;;;31.30;15.95;;;;;;;12.10;44.23;102384.63;5024177;27;97905;-69
2024/03/07 08:32:28;;;;;;;30.58;15.98;;;;;;;12.46;43.81;102379.63;5017023;27;98358;-70
2024/03/07 08:34:54;;;;;;;30.17;15.73;;;;;;;12.68;42.71;102381.00;5021094;27;97941;-69
2024/03/07 08:37:21;;;;;;;28.38;14.75;;;;;;;12.72;42.77;102388.00;5023746;27;99680;-69
2024/03/07 08:39:51;;;;;;;23.85;13.73;;;;;;;12.65;41.02;102386.38;5025089;27;97231;-69
2024/03/07 08:42:19;;;;;;;32.28;14.43;;;;;;;12.72;41.44;102378.28;5027060;27;97248;-70
2024/03/07 08:44:45;;;;;;;29.92;15.32;;;;;;;12.56;42.01;102386.53;5023006;27;99137;-70
2024/03/07 08:47:12;;;;;;;26.25;14.30;;;;;;;12.75;41.61;102390.59;5017718;27;98945;-70
2024/03/07 08:49:39;;;;;;;29.92;15.13;;;;;;;13.02;40.98;102382.09;5020492;27;96981;-69
2024/03/07 08:52:06;;;;;;;29.15;14.43;;;;;;;13.18;40.03;102385.38;5030291;27;97113;-70
2024/03/07 08:54:33;;;;;;;23.85;13.30;;;;;;;13.16;39.88;102389.81;5026710;27;99088;-70
2024/03/07 08:57:01;;;;;;;24.98;13.98;;;;;;;13.14;40.04;102392.50;5019697;27;98811;-69
2024/03/07 08:59:27;;;;;;;27.55;14.52;;;;;;;13.16;40.04;102385.41;5022898;27;97265;-70
2024/03/07 09:01:54;;;;;;;28.00;13.88;;;;;;;13.32;39.64;102391.28;5027034;27;97103;-70
2024/03/07 09:04:21;;;;;;;30.05;14.63;;;;;;;13.06;39.58;102383.78;5026313;27;102618;-69
2024/03/07 09:06:48;;;;;;;28.63;14.27;;;;;;;13.46;38.53;102389.19;5017481;27;99376;-69
2024/03/07 09:09:17;;;;;;;36.20;13.25;;;;;;;13.30;37.61;102389.53;5024478;27;97126;-69
2024/03/07 09:11:44;;;;;;;22.52;12.73;;;;;;;13.37;37.72;102388.50;5017976;27;99487;-69
2024/03/07 09:14:12;;;;;;;26.75;13.77;;;;;;;13.45;38.08;102383.91;5017678;27;99783;-70
2024/03/07 09:16:39;;;;;;;24.23;12.52;;;;;;;13.55;37.28;102383.69;5023770;27;101018;-71
2024/03/07 09:19:06;;;;;;;26.73;13.05;;;;;;;13.65;37.03;102380.84;5025394;27;97978;-69
2024/03/07 09:21:33;;;;;;;26.40;13.40;;;;;;;13.58;36.44;102382.75;5020432;27;98422;-69
2024/03/07 09:23:59;;;;;;;23.65;13.13;;;;;;;13.34;36.85;102377.94;5018262;27;99363;-70
2024/03/07 09:26:26;;;;;;;25.60;13.05;;;;;;;13.53;36.45;102380.16;5023008;27;101175;-68
2024/03/07 09:28:54;;;;;;;24.13;12.75;;;;;;;13.49;36.66;102388.25;5015689;27;97609;-69
2024/03/07 09:31:22;;;;;;;25.13;13.50;;;;;;;13.27;36.17;102377.19;5020670;27;99696;-69
2024/03/07 09:33:49;;;;;;;22.58;12.27;;;;;;;13.26;36.13;102379.91;5020640;27;98958;-69
2024/03/07 09:36:16;;;;;;;27.05;12.90;;;;;;;13.56;36.35;102379.25;5021511;27;100534;-70
2024/03/07 09:38:43;;;;;;;18.17;11.48;;;;;;;13.44;35.91;102380.38;5023167;27;97264;-70
2024/03/07 09:41:09;;;;;;;19.65;11.57;;;;;;;13.93;35.44;102371.28;5023141;27;98261;-76
2024/03/07 09:43:38;;;;;;;21.35;11.57;;;;;;;14.11;34.81;102383.28;5017645;27;99242;-75
2024/03/07 09:46:06;;;;;;;26.52;12.00;;;;;;;13.89;34.72;102375.81;5022252;27;98831;-73
2024/03/07 09:48:34;;;;;;;22.05;12.23;;;;;;;14.02;34.70;102378.19;5015804;27;97304;-75
2024/03/07 09:51:03;;;;;;;22.77;11.75;;;;;;;13.90;34.28;102380.22;5017186;27;96926;-75
2024/03/07 09:53:30;;;;;;;20.75;11.60;;;;;;;13.74;34.14;102369.97;5017183;27;98970;-74
2024/03/07 09:55:57;;;;;;;28.98;11.73;;;;;;;13.84;34.43;102369.75;5020407;27;99825;-75
2024/03/07 09:58:26;;;;;;;25.00;11.90;;;;;;;13.39;34.64;102362.81;5026257;27;97227;-75
2024/03/07 10:00:54;;;;;;;19.20;11.02;;;;;;;13.64;34.23;102371.09;5023493;27;97289;-74
2024/03/07 10:03:22;;;;;;;24.27;12.00;;;;;;;13.55;34.06;102358.91;5027254;27;98899;-74
2024/03/07 10:05:52;;;;;;;34.05;12.02;;;;;;;13.85;34.25;102355.53;5024166;27;98861;-76
2024/03/07 10:08:19;;;;;;;22.85;10.73;;;;;;;13.82;33.87;102358.28;5022056;27;98080;-75
2024/03/07 10:10:47;;;;;;;26.70;11.23;;;;;;;14.26;33.53;102353.66;5025697;27;97766;-75
2024/03/07 10:13:14;;;;;;;20.58;11.43;;;;;;;14.19;32.76;102362.69;5021042;27;99516;-75
2024/03/07 10:15:43;;;;;;;19.38;10.85;;;;;;;14.06;32.69;102353.28;5035372;27;98778;-75
2024/03/07 10:18:09;;;;;;;21.42;11.32;;;;;;;13.96;33.03;102358.81;5025172;27;96863;-75
2024/03/07 10:20:39;;;;;;;20.50;11.27;;;;;;;13.93;33.23;102364.19;5019260;27;98068;-75
2024/03/07 10:23:07;;;;;;;20.23;11.43;;;;;;;14.40;32.73;102362.19;5033183;27;101762;-69
2024/03/07 10:25:34;;;;;;;21.02;10.98;;;;;;;14.24;32.47;102352.84;5034390;27;98958;-70
2024/03/07 10:28:01;;;;;;;22.38;11.35;;;;;;;14.12;32.02;102354.00;5026356;27;96876;-75
2024/03/07 10:30:28;;;;;;;16.55;10.27;;;;;;;13.67;32.38;102358.63;5030811;27;97299;-75
2024/03/07 10:32:57;;;;;;;19.98;10.85;;;;;;;13.46;32.65;102356.44;5012858;27;99350;-75
2024/03/07 10:35:25;;;;;;;19.45;9.80;;;;;;;13.13;32.83;102353.59;5022637;27;99135;-75
2024/03/07 10:37:53;;;;;;;22.65;11.40;;;;;;;13.22;33.14;102351.66;5022092;27;97613;-75
2024/03/07 10:40:22;;;;;;;22.23;9.88;;;;;;;13.37;32.85;102343.38;5033235;27;97343;-75
2024/03/07 10:42:51;;;;;;;20.73;10.27;;;;;;;13.37;32.48;102324.78;5017156;27;99346;-75
2024/03/07 10:45:18;;;;;;;17.95;9.48;;;;;;;13.22;32.38;102336.59;5019164;27;99843;-75
2024/03/07 10:47:47;;;;;;;22.50;9.63;;;;;;;13.27;32.60;102341.81;5022801;27;96892;-70
2024/03/07 10:50:20;;;;;;;18.80;9.40;;;;;;;13.46;32.06;102329.88;5025535;27;97376;-70
2024/03/07 10:52:55;;;;;;;25.15;9.77;;;;;;;13.85;31.85;102328.06;5023590;27;102200;-70
2024/03/07 10:55:32;;;;;;;18.33;9.55;;;;;;;13.89;31.77;102332.44;5024819;27;98791;-74
2024/03/07 10:58:07;;;;;;;21.05;9.77;;;;;;;13.62;31.53;102333.94;5021054;27;97566;-76
2024/03/07 11:00:36;;;;;;;16.42;9.25;;;;;;;13.81;31.40;102337.91;5024675;27;97681;-74
2024/03/07 11:03:06;;;;;;;31.23;10.30;;;;;;;13.69;31.41;102334.69;5026297;27;98950;-74
2024/03/07 11:05:34;;;;;;;16.90;9.65;;;;;;;13.72;31.38;102332.81;5017401;27;99218;-73
2024/03/07 11:08:03;;;;;;;18.88;9.80;;;;;;;13.65;31.27;102336.56;5035808;27;97193;-73